sensor_id;sensor_type;location;lat;lon;timestamp;pressure;altitude;pressure_sealevel;temperature;humidity
49397;BME280;35615;41.410;2.194;2022-08-11T00:01:32;101362.44;;;32.92;36.07
49397;BME280;35615;41.410;2.194;2022-08-11T00:04:02;101357.13;;;32.91;36.54
49397;BME280;35615;41.410;2.194;2022-08-11T00:06:36;101355.63;;;32.85;36.54
49397;BME280;35615;41.410;2.194;2022-08-11T00:09:08;101352.38;;;32.77;37.08
49397;BME280;35615;41.410;2.194;2022-08-11T00:11:51;101348.91;;;32.75;37.03
49397;BME280;35615;41.410;2.194;2022-08-11T00:14:32;101347.97;;;32.76;37.13
49397;BME280;35615;41.410;2.194;2022-08-11T00:17:08;101356.00;;;32.76;37.75
49397;BME280;35615;41.410;2.194;2022-08-11T00:19:40;101358.69;;;32.76;37.66
49397;BME280;35615;41.410;2.194;2022-08-11T00:22:28;101362.44;;;32.72;37.97
49397;BME280;35615;41.410;2.194;2022-08-11T00:24:56;101359.75;;;32.72;37.66
49397;BME280;35615;41.410;2.194;2022-08-11T00:27:33;101357.16;;;32.71;38.10
49397;BME280;35615;41.410;2.194;2022-08-11T00:30:01;101360.56;;;32.74;38.17
49397;BME280;35615;41.410;2.194;2022-08-11T00:32:29;101356.16;;;32.73;38.28
49397;BME280;35615;41.410;2.194;2022-08-11T00:34:57;101357.28;;;32.67;38.69
49397;BME280;35615;41.410;2.194;2022-08-11T00:37:52;101355.47;;;32.68;38.68
49397;BME280;35615;41.410;2.194;2022-08-11T00:46:14;101360.72;;;32.51;39.15
49397;BME280;35615;41.410;2.194;2022-08-11T00:52:16;101357.41;;;32.44;38.47
49397;BME280;35615;41.410;2.194;2022-08-11T01:00:22;101355.06;;;32.36;38.68
49397;BME280;35615;41.410;2.194;2022-08-11T01:11:18;101365.53;;;32.21;39.06
49397;BME280;35615;41.410;2.194;2022-08-11T01:14:15;101379.81;;;32.20;38.70
49397;BME280;35615;41.410;2.194;2022-08-11T01:23:14;101374.31;;;32.02;38.76
49397;BME280;35615;41.410;2.194;2022-08-11T01:32:06;101368.34;;;31.96;38.45
49397;BME280;35615;41.410;2.194;2022-08-11T01:40:36;101374.06;;;31.87;38.31
49397;BME280;35615;41.410;2.194;2022-08-11T01:46:38;101370.72;;;31.82;38.24
49397;BME280;35615;41.410;2.194;2022-08-11T01:49:34;101371.69;;;31.79;38.39
49397;BME280;35615;41.410;2.194;2022-08-11T01:52:35;101376.31;;;31.75;38.36
49397;BME280;35615;41.410;2.194;2022-08-11T01:55:49;101375.53;;;31.72;38.61
49397;BME280;35615;41.410;2.194;2022-08-11T01:58:32;101383.56;;;31.72;38.41
49397;BME280;35615;41.410;2.194;2022-08-11T02:01:22;101377.44;;;31.68;38.21
49397;BME280;35615;41.410;2.194;2022-08-11T02:10:43;101372.59;;;31.56;38.10
49397;BME280;35615;41.410;2.194;2022-08-11T02:13:48;101370.09;;;31.51;38.37
49397;BME280;35615;41.410;2.194;2022-08-11T02:22:24;101377.34;;;31.48;38.20
49397;BME280;35615;41.410;2.194;2022-08-11T02:28:34;101372.06;;;31.46;38.35
49397;BME280;35615;41.410;2.194;2022-08-11T02:31:28;101374.75;;;31.46;38.71
49397;BME280;35615;41.410;2.194;2022-08-11T02:37:40;101375.00;;;31.40;38.44
49397;BME280;35615;41.410;2.194;2022-08-11T02:40:17;101374.06;;;31.41;38.95
49397;BME280;35615;41.410;2.194;2022-08-11T02:42:49;101377.66;;;31.40;38.39
49397;BME280;35615;41.410;2.194;2022-08-11T02:45:38;101373.34;;;31.36;38.40
49397;BME280;35615;41.410;2.194;2022-08-11T02:56:38;101374.59;;;31.28;38.60
49397;BME280;35615;41.410;2.194;2022-08-11T02:59:26;101385.44;;;31.23;38.86
49397;BME280;35615;41.410;2.194;2022-08-11T03:05:05;101372.94;;;31.23;39.02
49397;BME280;35615;41.410;2.194;2022-08-11T03:10:19;101379.44;;;31.16;39.74
49397;BME280;35615;41.410;2.194;2022-08-11T03:18:44;101373.22;;;31.16;39.47
49397;BME280;35615;41.410;2.194;2022-08-11T03:21:24;101366.19;;;31.13;39.41
49397;BME280;35615;41.410;2.194;2022-08-11T03:24:23;101371.59;;;31.12;39.72
49397;BME280;35615;41.410;2.194;2022-08-11T03:30:02;101360.97;;;31.10;39.73
49397;BME280;35615;41.410;2.194;2022-08-11T03:33:07;101362.78;;;31.10;39.78
49397;BME280;35615;41.410;2.194;2022-08-11T03:39:44;101367.38;;;31.06;39.80
49397;BME280;35615;41.410;2.194;2022-08-11T03:45:24;101365.78;;;31.01;40.12
49397;BME280;35615;41.410;2.194;2022-08-11T03:48:06;101368.31;;;31.04;40.17
49397;BME280;35615;41.410;2.194;2022-08-11T03:50:54;101363.91;;;31.03;40.17
49397;BME280;35615;41.410;2.194;2022-08-11T04:01:37;101381.44;;;30.86;40.77
49397;BME280;35615;41.410;2.194;2022-08-11T04:04:28;101384.91;;;30.88;40.59
49397;BME280;35615;41.410;2.194;2022-08-11T04:25:14;101410.66;;;30.64;40.69
49397;BME280;35615;41.410;2.194;2022-08-11T04:30:22;101413.50;;;30.58;40.83
49397;BME280;35615;41.410;2.194;2022-08-11T04:42:06;101403.44;;;30.42;40.74
49397;BME280;35615;41.410;2.194;2022-08-11T04:45:25;101413.28;;;30.40;41.08
49397;BME280;35615;41.410;2.194;2022-08-11T05:04:03;101411.09;;;30.24;40.96
49397;BME280;35615;41.410;2.194;2022-08-11T05:12:59;101409.72;;;30.13;41.29
49397;BME280;35615;41.410;2.194;2022-08-11T05:15:55;101407.91;;;30.13;41.56
49397;BME280;35615;41.410;2.194;2022-08-11T05:18:52;101412.44;;;30.11;41.08
49397;BME280;35615;41.410;2.194;2022-08-11T05:21:52;101408.84;;;30.12;41.02
49397;BME280;35615;41.410;2.194;2022-08-11T05:24:47;101398.06;;;30.17;41.12
49397;BME280;35615;41.410;2.194;2022-08-11T05:27:39;101398.06;;;30.15;40.88
49397;BME280;35615;41.410;2.194;2022-08-11T05:30:31;101399.88;;;30.15;41.49
49397;BME280;35615;41.410;2.194;2022-08-11T05:33:24;101405.19;;;30.16;41.19
49397;BME280;35615;41.410;2.194;2022-08-11T05:36:27;101408.72;;;30.15;41.18
49397;BME280;35615;41.410;2.194;2022-08-11T05:39:00;101413.31;;;30.12;41.36
49397;BME280;35615;41.410;2.194;2022-08-11T05:42:04;101413.16;;;30.16;40.75
49397;BME280;35615;41.410;2.194;2022-08-11T05:45:11;101413.13;;;30.18;40.74
49397;BME280;35615;41.410;2.194;2022-08-11T05:48:18;101405.94;;;30.20;40.81
49397;BME280;35615;41.410;2.194;2022-08-11T05:51:05;101412.81;;;30.27;40.74
49397;BME280;35615;41.410;2.194;2022-08-11T05:53:58;101407.56;;;30.24;40.94
49397;BME280;35615;41.410;2.194;2022-08-11T05:56:57;101411.94;;;30.26;41.42
49397;BME280;35615;41.410;2.194;2022-08-11T05:59:26;101415.38;;;30.30;41.12
49397;BME280;35615;41.410;2.194;2022-08-11T06:02:00;101408.31;;;30.29;41.05
49397;BME280;35615;41.410;2.194;2022-08-11T06:04:28;101414.78;;;30.47;41.25
49397;BME280;35615;41.410;2.194;2022-08-11T06:06:57;101417.38;;;30.50;41.15
49397;BME280;35615;41.410;2.194;2022-08-11T06:09:36;101415.78;;;30.44;41.17
49397;BME280;35615;41.410;2.194;2022-08-11T06:12:17;101425.50;;;30.45;41.14
49397;BME280;35615;41.410;2.194;2022-08-11T06:14:45;101423.22;;;30.34;41.01
49397;BME280;35615;41.410;2.194;2022-08-11T06:17:22;101422.78;;;30.47;41.05
49397;BME280;35615;41.410;2.194;2022-08-11T06:19:50;101422.97;;;30.42;41.03
49397;BME280;35615;41.410;2.194;2022-08-11T06:22:33;101432.69;;;30.43;41.40
49397;BME280;35615;41.410;2.194;2022-08-11T06:25:02;101429.09;;;30.44;41.52
49397;BME280;35615;41.410;2.194;2022-08-11T06:27:33;101429.09;;;30.44;40.81
49397;BME280;35615;41.410;2.194;2022-08-11T06:30:02;101435.38;;;30.43;40.95
49397;BME280;35615;41.410;2.194;2022-08-11T06:32:44;101430.84;;;30.45;41.38
49397;BME280;35615;41.410;2.194;2022-08-11T06:35:24;101421.88;;;30.48;40.85
49397;BME280;35615;41.410;2.194;2022-08-11T06:38:12;101426.75;;;30.35;41.90
49397;BME280;35615;41.410;2.194;2022-08-11T06:41:03;101426.56;;;30.41;41.83
49397;BME280;35615;41.410;2.194;2022-08-11T06:44:44;101426.50;;;30.43;41.02
49397;BME280;35615;41.410;2.194;2022-08-11T06:47:17;101432.44;;;30.51;41.19
49397;BME280;35615;41.410;2.194;2022-08-11T06:49:47;101427.88;;;30.54;41.39
49397;BME280;35615;41.410;2.194;2022-08-11T06:52:35;101427.69;;;30.59;40.53
49397;BME280;35615;41.410;2.194;2022-08-11T06:55:25;101425.81;;;30.62;40.43
49397;BME280;35615;41.410;2.194;2022-08-11T06:58:27;101435.47;;;30.67;40.45
49397;BME280;35615;41.410;2.194;2022-08-11T07:01:20;101436.34;;;30.67;40.49
49397;BME280;35615;41.410;2.194;2022-08-11T07:03:58;101433.31;;;30.78;40.43
49397;BME280;35615;41.410;2.194;2022-08-11T07:09:37;101432.88;;;30.90;40.43
49397;BME280;35615;41.410;2.194;2022-08-11T07:12:40;101432.69;;;30.96;40.03
49397;BME280;35615;41.410;2.194;2022-08-11T07:15:31;101428.09;;;31.00;40.07
49397;BME280;35615;41.410;2.194;2022-08-11T07:18:32;101427.94;;;31.04;40.02
49397;BME280;35615;41.410;2.194;2022-08-11T07:21:28;101434.09;;;31.06;40.02
49397;BME280;35615;41.410;2.194;2022-08-11T07:24:47;101430.31;;;31.12;40.17
49397;BME280;35615;41.410;2.194;2022-08-11T07:27:52;101421.13;;;31.20;39.98
49397;BME280;35615;41.410;2.194;2022-08-11T07:30:41;101421.00;;;31.23;40.09
49397;BME280;35615;41.410;2.194;2022-08-11T07:33:12;101426.28;;;31.25;40.59
49397;BME280;35615;41.410;2.194;2022-08-11T07:36:02;101419.59;;;31.38;40.14
49397;BME280;35615;41.410;2.194;2022-08-11T07:38:43;101440.81;;;31.41;40.05
49397;BME280;35615;41.410;2.194;2022-08-11T07:41:14;101432.56;;;31.47;39.92
49397;BME280;35615;41.410;2.194;2022-08-11T07:43:44;101439.59;;;31.50;40.07
49397;BME280;35615;41.410;2.194;2022-08-11T07:46:16;101432.34;;;31.54;39.94
49397;BME280;35615;41.410;2.194;2022-08-11T07:49:03;101436.69;;;31.56;39.94
49397;BME280;35615;41.410;2.194;2022-08-11T07:51:52;101439.22;;;31.59;39.34
49397;BME280;35615;41.410;2.194;2022-08-11T07:54:39;101436.75;;;31.78;39.58
49397;BME280;35615;41.410;2.194;2022-08-11T07:57:10;101441.06;;;31.82;39.05
49397;BME280;35615;41.410;2.194;2022-08-11T08:00:17;101439.59;;;31.97;39.54
49397;BME280;35615;41.410;2.194;2022-08-11T08:03:07;101440.16;;;32.05;39.14
49397;BME280;35615;41.410;2.194;2022-08-11T08:05:58;101435.97;;;32.20;38.72
49397;BME280;35615;41.410;2.194;2022-08-11T08:09:04;101433.31;;;32.20;38.72
49397;BME280;35615;41.410;2.194;2022-08-11T08:11:54;101439.31;;;32.25;39.39
49397;BME280;35615;41.410;2.194;2022-08-11T08:14:41;101439.28;;;32.48;39.07
49397;BME280;35615;41.410;2.194;2022-08-11T08:17:35;101437.81;;;32.61;39.08
49397;BME280;35615;41.410;2.194;2022-08-11T08:20:47;101442.28;;;32.83;39.27
49397;BME280;35615;41.410;2.194;2022-08-11T08:23:35;101436.38;;;32.95;39.26
49397;BME280;35615;41.410;2.194;2022-08-11T08:26:10;101438.75;;;33.21;39.40
49397;BME280;35615;41.410;2.194;2022-08-11T08:29:01;101434.88;;;33.29;39.36
49397;BME280;35615;41.410;2.194;2022-08-11T08:31:58;101438.03;;;33.57;38.47
49397;BME280;35615;41.410;2.194;2022-08-11T08:34:39;101435.63;;;33.70;38.69
49397;BME280;35615;41.410;2.194;2022-08-11T08:37:10;101432.44;;;33.99;37.98
49397;BME280;35615;41.410;2.194;2022-08-11T08:40:03;101435.19;;;34.34;38.03
49397;BME280;35615;41.410;2.194;2022-08-11T08:42:38;101431.94;;;34.63;37.19
49397;BME280;35615;41.410;2.194;2022-08-11T08:45:12;101432.19;;;34.59;35.08
49397;BME280;35615;41.410;2.194;2022-08-11T08:47:50;101435.34;;;34.31;33.08
49397;BME280;35615;41.410;2.194;2022-08-11T08:50:21;101432.66;;;34.50;32.49
49397;BME280;35615;41.410;2.194;2022-08-11T08:53:03;101437.16;;;34.84;33.16
49397;BME280;35615;41.410;2.194;2022-08-11T08:55:31;101432.38;;;34.37;33.50
49397;BME280;35615;41.410;2.194;2022-08-11T08:58:01;101424.91;;;34.96;32.61
49397;BME280;35615;41.410;2.194;2022-08-11T09:00:40;101434.31;;;35.04;33.53
49397;BME280;35615;41.410;2.194;2022-08-11T09:03:10;101422.56;;;35.22;32.67
49397;BME280;35615;41.410;2.194;2022-08-11T09:06:02;101426.09;;;35.56;32.75
49397;BME280;35615;41.410;2.194;2022-08-11T09:08:36;101421.66;;;35.06;35.83
49397;BME280;35615;41.410;2.194;2022-08-11T09:11:10;101426.53;;;35.15;36.07
49397;BME280;35615;41.410;2.194;2022-08-11T09:13:56;101431.94;;;35.31;36.36
49397;BME280;35615;41.410;2.194;2022-08-11T09:16:35;101424.66;;;35.33;38.28
49397;BME280;35615;41.410;2.194;2022-08-11T09:19:06;101421.31;;;35.45;38.38
49397;BME280;35615;41.410;2.194;2022-08-11T09:21:40;101437.84;;;35.05;39.92
49397;BME280;35615;41.410;2.194;2022-08-11T09:24:17;101420.91;;;35.37;39.27
49397;BME280;35615;41.410;2.194;2022-08-11T09:27:06;101424.56;;;35.84;38.96
49397;BME280;35615;41.410;2.194;2022-08-11T09:29:36;101423.09;;;35.29;40.79
49397;BME280;35615;41.410;2.194;2022-08-11T09:32:04;101430.25;;;35.46;39.71
49397;BME280;35615;41.410;2.194;2022-08-11T09:34:34;101425.50;;;35.51;40.64
49397;BME280;35615;41.410;2.194;2022-08-11T09:37:02;101423.84;;;35.80;39.87
49397;BME280;35615;41.410;2.194;2022-08-11T09:40:10;101426.47;;;35.33;40.89
49397;BME280;35615;41.410;2.194;2022-08-11T09:43:05;101429.16;;;35.82;40.96
49397;BME280;35615;41.410;2.194;2022-08-11T09:45:54;101436.16;;;35.19;43.44
49397;BME280;35615;41.410;2.194;2022-08-11T09:48:25;101422.16;;;35.95;41.49
49397;BME280;35615;41.410;2.194;2022-08-11T09:50:56;101434.03;;;35.91;41.39
49397;BME280;35615;41.410;2.194;2022-08-11T09:53:26;101424.56;;;36.15;41.51
49397;BME280;35615;41.410;2.194;2022-08-11T09:56:11;101433.94;;;36.08;41.94
49397;BME280;35615;41.410;2.194;2022-08-11T09:59:01;101430.44;;;35.74;43.24
49397;BME280;35615;41.410;2.194;2022-08-11T10:01:33;101441.34;;;35.56;43.82
49397;BME280;35615;41.410;2.194;2022-08-11T10:04:12;101432.53;;;35.36;44.37
49397;BME280;35615;41.410;2.194;2022-08-11T10:06:43;101428.06;;;35.37;44.79
49397;BME280;35615;41.410;2.194;2022-08-11T10:09:57;101423.59;;;35.85;43.31
49397;BME280;35615;41.410;2.194;2022-08-11T10:12:31;101425.66;;;35.79;43.50
49397;BME280;35615;41.410;2.194;2022-08-11T10:15:03;101419.16;;;35.68;43.65
49397;BME280;35615;41.410;2.194;2022-08-11T10:17:53;101436.19;;;35.84;43.50
49397;BME280;35615;41.410;2.194;2022-08-11T10:20:41;101425.00;;;35.76;43.58
49397;BME280;35615;41.410;2.194;2022-08-11T10:23:11;101436.28;;;35.83;43.79
49397;BME280;35615;41.410;2.194;2022-08-11T10:25:58;101420.84;;;35.86;44.13
49397;BME280;35615;41.410;2.194;2022-08-11T10:28:47;101417.69;;;35.78;43.60
49397;BME280;35615;41.410;2.194;2022-08-11T10:31:35;101427.97;;;36.03;43.61
49397;BME280;35615;41.410;2.194;2022-08-11T10:34:26;101436.66;;;35.43;45.63
49397;BME280;35615;41.410;2.194;2022-08-11T10:36:55;101428.50;;;35.45;45.68
49397;BME280;35615;41.410;2.194;2022-08-11T10:39:25;101432.16;;;35.44;45.91
49397;BME280;35615;41.410;2.194;2022-08-11T10:41:53;101437.41;;;34.97;46.83
49397;BME280;35615;41.410;2.194;2022-08-11T10:45:00;101434.63;;;35.31;45.62
49397;BME280;35615;41.410;2.194;2022-08-11T10:47:53;101445.28;;;35.00;46.10
49397;BME280;35615;41.410;2.194;2022-08-11T10:50:22;101435.66;;;35.29;43.54
49397;BME280;35615;41.410;2.194;2022-08-11T10:53:09;101441.22;;;35.26;43.11
49397;BME280;35615;41.410;2.194;2022-08-11T10:55:56;101430.56;;;36.04;40.65
49397;BME280;35615;41.410;2.194;2022-08-11T10:58:43;101422.66;;;35.70;41.39
49397;BME280;35615;41.410;2.194;2022-08-11T11:01:23;101442.34;;;36.18;41.05
49397;BME280;35615;41.410;2.194;2022-08-11T11:03:55;101439.31;;;35.61;42.52
49397;BME280;35615;41.410;2.194;2022-08-11T11:06:53;101438.44;;;36.07;42.40
49397;BME280;35615;41.410;2.194;2022-08-11T11:09:32;101432.38;;;35.88;43.38
49397;BME280;35615;41.410;2.194;2022-08-11T11:12:23;101428.81;;;35.72;43.01
49397;BME280;35615;41.410;2.194;2022-08-11T11:15:10;101426.09;;;35.56;40.13
49397;BME280;35615;41.410;2.194;2022-08-11T11:18:05;101428.47;;;36.55;40.54
49397;BME280;35615;41.410;2.194;2022-08-11T11:26:04;101423.81;;;36.43;37.69
49397;BME280;35615;41.410;2.194;2022-08-11T11:31:45;101425.84;;;36.40;37.91
49397;BME280;35615;41.410;2.194;2022-08-11T11:37:35;101427.41;;;36.88;37.77
49397;BME280;35615;41.410;2.194;2022-08-11T11:40:12;101438.88;;;36.61;37.04
49397;BME280;35615;41.410;2.194;2022-08-11T11:42:41;101432.09;;;36.40;37.81
49397;BME280;35615;41.410;2.194;2022-08-11T11:45:11;101433.16;;;35.59;39.84
49397;BME280;35615;41.410;2.194;2022-08-11T11:47:52;101439.63;;;35.39;38.46
49397;BME280;35615;41.410;2.194;2022-08-11T11:50:32;101435.16;;;36.02;40.10
49397;BME280;35615;41.410;2.194;2022-08-11T11:53:03;101436.06;;;35.38;36.90
49397;BME280;35615;41.410;2.194;2022-08-11T11:55:32;101423.00;;;35.48;39.00
49397;BME280;35615;41.410;2.194;2022-08-11T11:58:02;101425.50;;;35.51;36.68
49397;BME280;35615;41.410;2.194;2022-08-11T12:00:49;101424.88;;;35.46;37.47
49397;BME280;35615;41.410;2.194;2022-08-11T12:03:37;101426.13;;;35.72;35.55
49397;BME280;35615;41.410;2.194;2022-08-11T12:06:07;101422.41;;;35.90;34.31
49397;BME280;35615;41.410;2.194;2022-08-11T12:08:36;101424.84;;;35.95;37.14
49397;BME280;35615;41.410;2.194;2022-08-11T12:11:06;101416.91;;;36.39;37.77
49397;BME280;35615;41.410;2.194;2022-08-11T12:13:59;101425.38;;;36.47;37.30
49397;BME280;35615;41.410;2.194;2022-08-11T12:16:28;101415.09;;;36.54;38.34
49397;BME280;35615;41.410;2.194;2022-08-11T12:19:07;101415.09;;;36.54;37.85
49397;BME280;35615;41.410;2.194;2022-08-11T12:21:39;101411.66;;;36.66;37.88
49397;BME280;35615;41.410;2.194;2022-08-11T12:24:31;101413.66;;;36.48;36.84
49397;BME280;35615;41.410;2.194;2022-08-11T12:27:18;101411.16;;;36.89;37.10
49397;BME280;35615;41.410;2.194;2022-08-11T12:30:00;101401.94;;;36.49;37.47
49397;BME280;35615;41.410;2.194;2022-08-11T12:32:41;101412.22;;;36.87;37.50
49397;BME280;35615;41.410;2.194;2022-08-11T12:35:09;101389.22;;;36.37;38.14
49397;BME280;35615;41.410;2.194;2022-08-11T12:37:44;101409.41;;;36.44;38.35
49397;BME280;35615;41.410;2.194;2022-08-11T12:40:18;101411.97;;;35.84;39.56
49397;BME280;35615;41.410;2.194;2022-08-11T12:43:29;101406.50;;;36.01;39.83
49397;BME280;35615;41.410;2.194;2022-08-11T12:46:31;101404.41;;;36.22;38.42
49397;BME280;35615;41.410;2.194;2022-08-11T12:49:12;101404.69;;;36.02;39.07
49397;BME280;35615;41.410;2.194;2022-08-11T12:52:09;101413.28;;;35.61;39.53
49397;BME280;35615;41.410;2.194;2022-08-11T12:55:08;101412.94;;;36.15;38.18
49397;BME280;35615;41.410;2.194;2022-08-11T12:57:44;101402.53;;;35.77;38.97
49397;BME280;35615;41.410;2.194;2022-08-11T13:00:32;101396.47;;;36.05;38.47
49397;BME280;35615;41.410;2.194;2022-08-11T13:03:19;101405.72;;;35.68;39.34
49397;BME280;35615;41.410;2.194;2022-08-11T13:06:06;101405.31;;;35.91;38.96
49397;BME280;35615;41.410;2.194;2022-08-11T13:08:36;101403.50;;;35.27;39.96
49397;BME280;35615;41.410;2.194;2022-08-11T13:11:04;101398.28;;;35.41;40.16
49397;BME280;35615;41.410;2.194;2022-08-11T13:14:11;101398.19;;;36.52;37.65
49397;BME280;35615;41.410;2.194;2022-08-11T13:16:43;101399.91;;;36.53;37.69
49397;BME280;35615;41.410;2.194;2022-08-11T13:19:30;101386.75;;;35.87;38.83
49397;BME280;35615;41.410;2.194;2022-08-11T13:21:59;101395.59;;;36.64;37.09
49397;BME280;35615;41.410;2.194;2022-08-11T13:24:28;101393.53;;;35.94;37.38
49397;BME280;35615;41.410;2.194;2022-08-11T13:27:00;101390.91;;;36.08;36.51
49397;BME280;35615;41.410;2.194;2022-08-11T13:29:30;101398.72;;;35.65;35.96
49397;BME280;35615;41.410;2.194;2022-08-11T13:31:58;101379.31;;;36.22;35.03
49397;BME280;35615;41.410;2.194;2022-08-11T13:34:28;101387.28;;;35.93;34.56
49397;BME280;35615;41.410;2.194;2022-08-11T13:37:00;101386.56;;;35.74;34.69
49397;BME280;35615;41.410;2.194;2022-08-11T13:39:32;101385.81;;;35.88;32.67
49397;BME280;35615;41.410;2.194;2022-08-11T13:42:03;101380.25;;;35.75;32.77
49397;BME280;35615;41.410;2.194;2022-08-11T13:44:36;101370.97;;;35.96;33.30
49397;BME280;35615;41.410;2.194;2022-08-11T13:47:06;101367.19;;;36.45;31.95
49397;BME280;35615;41.410;2.194;2022-08-11T13:49:36;101362.34;;;36.80;30.42
49397;BME280;35615;41.410;2.194;2022-08-11T13:52:10;101371.44;;;36.93;29.89
49397;BME280;35615;41.410;2.194;2022-08-11T13:54:46;101371.00;;;36.71;27.26
49397;BME280;35615;41.410;2.194;2022-08-11T13:57:15;101369.72;;;37.06;27.60
49397;BME280;35615;41.410;2.194;2022-08-11T14:00:07;101367.16;;;36.75;27.02
49397;BME280;35615;41.410;2.194;2022-08-11T14:02:54;101364.34;;;36.92;27.48
49397;BME280;35615;41.410;2.194;2022-08-11T14:05:40;101361.66;;;36.48;27.93
49397;BME280;35615;41.410;2.194;2022-08-11T14:08:21;101367.06;;;36.76;27.36
49397;BME280;35615;41.410;2.194;2022-08-11T14:11:05;101364.94;;;36.67;26.66
49397;BME280;35615;41.410;2.194;2022-08-11T14:14:18;101365.63;;;36.11;27.35
49397;BME280;35615;41.410;2.194;2022-08-11T14:16:49;101373.06;;;36.37;29.32
49397;BME280;35615;41.410;2.194;2022-08-11T14:19:23;101379.25;;;36.53;31.05
49397;BME280;35615;41.410;2.194;2022-08-11T14:21:52;101375.13;;;36.32;31.69
49397;BME280;35615;41.410;2.194;2022-08-11T14:24:42;101373.50;;;36.14;31.35
49397;BME280;35615;41.410;2.194;2022-08-11T14:27:16;101370.47;;;36.20;32.05
49397;BME280;35615;41.410;2.194;2022-08-11T14:30:07;101363.91;;;36.09;31.32
49397;BME280;35615;41.410;2.194;2022-08-11T14:32:55;101372.69;;;36.57;29.46
49397;BME280;35615;41.410;2.194;2022-08-11T14:35:42;101368.34;;;36.25;30.93
49397;BME280;35615;41.410;2.194;2022-08-11T14:38:11;101368.69;;;36.04;31.96
49397;BME280;35615;41.410;2.194;2022-08-11T14:40:42;101360.53;;;36.36;33.85
49397;BME280;35615;41.410;2.194;2022-08-11T14:43:29;101365.94;;;35.74;34.53
49397;BME280;35615;41.410;2.194;2022-08-11T14:46:35;101353.06;;;35.79;37.10
49397;BME280;35615;41.410;2.194;2022-08-11T14:49:24;101345.38;;;35.42;39.58
49397;BME280;35615;41.410;2.194;2022-08-11T14:51:52;101335.72;;;35.22;39.92
49397;BME280;35615;41.410;2.194;2022-08-11T14:54:25;101338.16;;;35.27;39.99
49397;BME280;35615;41.410;2.194;2022-08-11T14:57:15;101341.25;;;35.03;40.28
49397;BME280;35615;41.410;2.194;2022-08-11T15:00:06;101344.31;;;35.29;40.46
49397;BME280;35615;41.410;2.194;2022-08-11T15:02:38;101339.22;;;34.41;38.46
49397;BME280;35615;41.410;2.194;2022-08-11T15:05:24;101331.53;;;35.01;40.60
49397;BME280;35615;41.410;2.194;2022-08-11T15:07:56;101330.03;;;35.28;38.45
49397;BME280;35615;41.410;2.194;2022-08-11T15:10:25;101334.53;;;34.61;40.70
49397;BME280;35615;41.410;2.194;2022-08-11T15:12:52;101327.84;;;34.86;34.60
49397;BME280;35615;41.410;2.194;2022-08-11T15:15:21;101331.50;;;34.67;35.15
49397;BME280;35615;41.410;2.194;2022-08-11T15:18:11;101333.63;;;33.92;37.51
49397;BME280;35615;41.410;2.194;2022-08-11T15:20:43;101326.94;;;34.00;38.83
49397;BME280;35615;41.410;2.194;2022-08-11T15:23:29;101325.53;;;34.11;41.08
49397;BME280;35615;41.410;2.194;2022-08-11T15:26:18;101325.16;;;34.53;42.33
49397;BME280;35615;41.410;2.194;2022-08-11T15:29:09;101329.81;;;35.00;43.23
49397;BME280;35615;41.410;2.194;2022-08-11T15:31:57;101326.66;;;34.91;43.98
49397;BME280;35615;41.410;2.194;2022-08-11T15:34:46;101320.47;;;35.22;43.71
49397;BME280;35615;41.410;2.194;2022-08-11T15:37:35;101324.28;;;35.34;44.18
49397;BME280;35615;41.410;2.194;2022-08-11T15:40:27;101325.25;;;34.84;45.31
49397;BME280;35615;41.410;2.194;2022-08-11T15:46:05;101318.75;;;34.21;47.49
49397;BME280;35615;41.410;2.194;2022-08-11T15:48:43;101314.69;;;34.48;47.81
49397;BME280;35615;41.410;2.194;2022-08-11T15:53:56;101311.00;;;34.66;46.10
49397;BME280;35615;41.410;2.194;2022-08-11T15:56:26;101318.16;;;34.83;45.21
49397;BME280;35615;41.410;2.194;2022-08-11T15:58:57;101320.56;;;34.55;45.04
49397;BME280;35615;41.410;2.194;2022-08-11T16:02:06;101313.16;;;34.08;46.21
49397;BME280;35615;41.410;2.194;2022-08-11T16:04:44;101319.09;;;34.15;45.69
49397;BME280;35615;41.410;2.194;2022-08-11T16:07:14;101321.19;;;34.08;45.95
49397;BME280;35615;41.410;2.194;2022-08-11T16:09:46;101318.94;;;33.82;46.10
49397;BME280;35615;41.410;2.194;2022-08-11T16:12:27;101319.50;;;33.88;45.18
49397;BME280;35615;41.410;2.194;2022-08-11T16:15:03;101322.28;;;33.87;46.38
49397;BME280;35615;41.410;2.194;2022-08-11T16:17:53;101317.53;;;33.92;46.99
49397;BME280;35615;41.410;2.194;2022-08-11T16:20:22;101315.66;;;34.11;47.23
49397;BME280;35615;41.410;2.194;2022-08-11T16:22:53;101310.41;;;34.27;46.54
49397;BME280;35615;41.410;2.194;2022-08-11T16:25:29;101313.38;;;34.21;46.28
49397;BME280;35615;41.410;2.194;2022-08-11T16:28:20;101309.19;;;33.98;46.04
49397;BME280;35615;41.410;2.194;2022-08-11T16:30:50;101301.84;;;34.01;46.09
49397;BME280;35615;41.410;2.194;2022-08-11T16:33:23;101301.09;;;33.80;46.88
49397;BME280;35615;41.410;2.194;2022-08-11T16:36:13;101295.81;;;33.62;46.22
49397;BME280;35615;41.410;2.194;2022-08-11T16:39:00;101293.59;;;33.70;45.69
49397;BME280;35615;41.410;2.194;2022-08-11T16:41:30;101286.66;;;34.19;44.94
49397;BME280;35615;41.410;2.194;2022-08-11T16:44:19;101290.34;;;33.99;45.11
49397;BME280;35615;41.410;2.194;2022-08-11T16:47:09;101272.84;;;33.92;45.23
49397;BME280;35615;41.410;2.194;2022-08-11T16:49:50;101280.09;;;34.07;45.57
49397;BME280;35615;41.410;2.194;2022-08-11T16:52:19;101277.47;;;34.23;44.55
49397;BME280;35615;41.410;2.194;2022-08-11T16:54:48;101279.31;;;34.40;44.61
49397;BME280;35615;41.410;2.194;2022-08-11T16:57:23;101286.00;;;34.14;45.03
49397;BME280;35615;41.410;2.194;2022-08-11T17:00:13;101278.19;;;34.44;44.31
49397;BME280;35615;41.410;2.194;2022-08-11T17:02:52;101282.53;;;34.12;44.71